createdAt,value
2023-04-21T00:00:26.516Z,16.81
2023-04-21T00:03:30.239Z,16.71
2023-04-21T00:06:33.093Z,16.73
2023-04-21T00:09:35.316Z,16.79
2023-04-21T00:12:38.280Z,16.73
2023-04-21T00:15:40.753Z,16.75
2023-04-21T00:18:43.337Z,16.75
2023-04-21T00:21:46.223Z,16.71
2023-04-21T00:24:48.868Z,16.71
2023-04-21T00:27:51.198Z,16.63
2023-04-21T00:30:54.457Z,16.55
2023-04-21T00:33:59.626Z,16.47
2023-04-21T00:37:02.603Z,16.49
2023-04-21T00:40:05.765Z,16.40
2023-04-21T00:43:08.103Z,16.45
2023-04-21T00:46:10.298Z,16.45
2023-04-21T00:49:14.523Z,16.50
2023-04-21T00:52:18.614Z,16.46
2023-04-21T00:55:21.474Z,16.36
2023-04-21T00:58:23.675Z,16.37
2023-04-21T01:01:27.372Z,16.31
2023-04-21T01:04:35.553Z,16.25
2023-04-21T01:07:39.376Z,16.27
2023-04-21T01:10:41.601Z,16.24
2023-04-21T01:13:43.820Z,16.21
2023-04-21T01:16:46.757Z,16.24
2023-04-21T01:19:51.061Z,16.22
2023-04-21T01:22:53.529Z,16.26
2023-04-21T01:25:55.757Z,16.19
2023-04-21T01:28:58.015Z,16.17
2023-04-21T01:32:05.506Z,16.09
2023-04-21T01:35:08.204Z,16.03
2023-04-21T01:38:12.595Z,16.10
2023-04-21T01:41:14.960Z,16.09
2023-04-21T01:44:17.205Z,16.00
2023-04-21T01:47:20.640Z,16.05
2023-04-21T01:50:26.693Z,16.04
2023-04-21T01:53:28.969Z,16.00
2023-04-21T01:56:31.226Z,15.99
2023-04-21T01:59:33.463Z,15.98
2023-04-21T02:02:38.072Z,15.95
2023-04-21T02:05:40.514Z,16.00
2023-04-21T02:08:42.795Z,15.91
2023-04-21T02:11:44.986Z,15.84
2023-04-21T02:14:48.193Z,15.76
2023-04-21T02:17:50.376Z,15.71
2023-04-21T02:20:52.676Z,15.75
2023-04-21T02:23:55.082Z,15.82
2023-04-21T02:26:58.628Z,15.87
2023-04-21T02:30:03.908Z,15.86
2023-04-21T02:33:06.157Z,15.79
2023-04-21T02:36:08.513Z,15.81
2023-04-21T02:39:10.762Z,15.79
2023-04-21T02:42:13.694Z,15.85
2023-04-21T02:45:16.222Z,15.87
2023-04-21T02:48:23.108Z,15.84
2023-04-21T02:51:26.852Z,15.78
2023-04-21T02:54:28.987Z,15.77
2023-04-21T02:57:31.219Z,15.69
2023-04-21T03:00:35.509Z,15.64
2023-04-21T03:03:37.862Z,15.63
2023-04-21T03:06:40.168Z,15.66
2023-04-21T03:09:42.546Z,15.70
2023-04-21T03:12:45.144Z,15.68
2023-04-21T03:15:47.618Z,15.60
2023-04-21T03:18:51.716Z,15.73
2023-04-21T03:21:54.095Z,15.74
2023-04-21T03:24:56.276Z,15.72
2023-04-21T03:27:58.555Z,15.74
2023-04-21T03:31:01.015Z,15.73
2023-04-21T03:34:03.185Z,15.73
2023-04-21T03:37:05.400Z,15.69
2023-04-21T03:40:08.792Z,15.69
2023-04-21T03:43:11.021Z,15.66
2023-04-21T03:46:18.563Z,15.57
2023-04-21T03:49:21.653Z,15.68
2023-04-21T03:52:24.436Z,15.57
2023-04-21T03:55:26.770Z,15.66
2023-04-21T03:58:29.071Z,15.65
2023-04-21T04:01:31.230Z,15.72
2023-04-21T04:04:33.703Z,15.83
2023-04-21T04:07:36.137Z,15.93
2023-04-21T04:10:38.421Z,16.15
2023-04-21T04:13:40.596Z,16.28
2023-04-21T04:16:42.975Z,16.60
2023-04-21T04:19:45.174Z,16.76
2023-04-21T04:22:47.629Z,16.78
2023-04-21T04:25:53.616Z,16.79
2023-04-21T04:28:57.140Z,16.88
2023-04-21T04:32:01.745Z,16.94
2023-04-21T04:35:06.489Z,17.01
2023-04-21T04:38:08.734Z,17.13
2023-04-21T04:41:12.940Z,17.26
2023-04-21T04:44:18.080Z,17.36
2023-04-21T04:47:20.747Z,17.37
2023-04-21T04:50:22.906Z,17.39
2023-04-21T04:53:25.826Z,17.42
2023-04-21T04:56:30.382Z,17.51
2023-04-21T04:59:32.714Z,17.39
2023-04-21T05:02:35.119Z,17.41
2023-04-21T05:05:37.622Z,17.36
2023-04-21T05:08:41.426Z,17.44
2023-04-21T05:11:43.816Z,17.50
2023-04-21T05:14:46.007Z,17.44
2023-04-21T05:17:48.534Z,17.30
2023-04-21T05:20:51.057Z,17.32
2023-04-21T05:23:57.530Z,17.37
2023-04-21T05:26:59.847Z,17.32
2023-04-21T05:30:02.031Z,17.42
2023-04-21T05:33:04.391Z,17.50
2023-04-21T05:36:10.485Z,17.48
2023-04-21T05:39:12.764Z,17.43
2023-04-21T05:42:15.020Z,17.45
2023-04-21T05:45:17.290Z,17.41
2023-04-21T05:48:19.756Z,17.58
2023-04-21T05:51:22.087Z,17.54
2023-04-21T05:54:24.410Z,17.61
2023-04-21T05:57:27.057Z,17.63
2023-04-21T06:00:29.504Z,17.59
2023-04-21T06:03:32.705Z,17.76
2023-04-21T06:06:35.834Z,17.81
2023-04-21T06:09:39.714Z,17.79
2023-04-21T06:12:43.268Z,17.90
2023-04-21T06:15:46.382Z,17.92
2023-04-21T06:18:48.809Z,17.99
2023-04-21T06:21:51.151Z,18.04
2023-04-21T06:24:53.369Z,18.13
2023-04-21T06:27:56.473Z,18.16
2023-04-21T06:30:59.747Z,18.20
2023-04-21T06:34:02.218Z,18.24
2023-04-21T06:37:04.460Z,18.30
2023-04-21T06:40:08.162Z,18.33
2023-04-21T06:43:10.575Z,18.44
2023-04-21T06:46:12.815Z,18.46
2023-04-21T06:49:15.080Z,18.59
2023-04-21T06:52:18.936Z,18.64
2023-04-21T06:55:24.626Z,18.66
2023-04-21T06:58:26.818Z,18.70
2023-04-21T07:01:29.152Z,18.70
2023-04-21T07:04:44.144Z,18.74
2023-04-21T07:07:46.677Z,18.80
2023-04-21T07:10:50.395Z,18.76
2023-04-21T07:13:56.038Z,18.84
2023-04-21T07:16:58.560Z,18.94
2023-04-21T07:20:04.435Z,19.04
2023-04-21T07:23:06.700Z,19.05
2023-04-21T07:26:08.881Z,19.11
2023-04-21T07:29:11.056Z,19.11
2023-04-21T07:32:13.505Z,19.11
2023-04-21T07:35:17.149Z,19.16
2023-04-21T07:38:21.420Z,19.19
2023-04-21T07:41:23.967Z,19.20
2023-04-21T07:44:26.400Z,19.20
2023-04-21T07:47:29.309Z,19.26
2023-04-21T07:50:32.536Z,19.29
2023-04-21T07:53:35.547Z,19.28
2023-04-21T07:58:13.172Z,19.37
2023-04-21T08:01:21.158Z,19.27
2023-04-21T08:04:27.316Z,19.34
2023-04-21T08:07:32.045Z,19.52
2023-04-21T08:10:39.593Z,19.58
2023-04-21T08:13:48.523Z,19.58
2023-04-21T08:16:51.050Z,19.69
2023-04-21T08:19:53.541Z,19.70
2023-04-21T08:23:00.192Z,19.76
2023-04-21T08:26:03.710Z,19.80
2023-04-21T08:29:07.504Z,19.83
2023-04-21T08:32:10.023Z,19.83
2023-04-21T08:35:12.443Z,19.83
2023-04-21T08:38:14.968Z,19.85
2023-04-21T08:41:17.272Z,19.97
2023-04-21T08:44:22.055Z,19.97
2023-04-21T08:47:28.489Z,19.99
2023-04-21T08:50:32.096Z,19.98
2023-04-21T08:54:04.233Z,20.09
2023-04-21T08:57:15.249Z,20.12
2023-04-21T09:00:23.370Z,19.95
2023-04-21T09:03:30.529Z,20.22
2023-04-21T09:06:50.686Z,20.31
2023-04-21T09:09:56.793Z,20.40
2023-04-21T09:12:59.728Z,20.43
2023-04-21T09:16:08.482Z,20.46
2023-04-21T09:19:16.842Z,20.53
2023-04-21T09:22:19.156Z,20.54
2023-04-21T09:25:23.747Z,20.57
2023-04-21T09:28:32.282Z,20.51
2023-04-21T09:31:35.795Z,20.50
2023-04-21T09:34:41.493Z,20.45
2023-04-21T09:37:44.585Z,20.48
2023-04-21T09:40:47.195Z,20.49
2023-04-21T09:43:54.206Z,20.48
2023-04-21T09:47:04.081Z,20.50
2023-04-21T09:50:13.346Z,20.48
2023-04-21T09:53:20.267Z,20.51
2023-04-21T09:56:26.625Z,20.51
2023-04-21T09:59:55.640Z,20.59
2023-04-21T10:02:59.205Z,20.43
2023-04-21T10:09:11.818Z,20.69
2023-04-21T10:12:14.682Z,20.75
2023-04-21T10:15:39.472Z,20.78
2023-04-21T10:18:46.233Z,20.87
2023-04-21T10:21:52.038Z,20.88
2023-04-21T10:25:00.249Z,20.90
2023-04-21T10:28:06.616Z,20.95
2023-04-21T10:31:35.853Z,20.99
2023-04-21T10:34:41.338Z,20.90
2023-04-21T10:37:49.119Z,20.89
2023-04-21T10:40:52.552Z,20.87
2023-04-21T10:43:58.649Z,20.98
2023-04-21T10:47:09.225Z,20.97
2023-04-21T10:50:47.450Z,21.01
2023-04-21T10:54:36.522Z,20.90
2023-04-21T10:57:44.513Z,20.97
2023-04-21T11:01:09.936Z,20.90
2023-04-21T11:04:16.793Z,20.90
2023-04-21T11:07:21.259Z,20.94
2023-04-21T11:10:25.134Z,20.87
2023-04-21T11:13:33.604Z,20.83
2023-04-21T11:16:37.993Z,20.78
2023-04-21T11:19:40.516Z,20.80
2023-04-21T11:22:42.726Z,20.72
2023-04-21T11:25:47.094Z,20.72
2023-04-21T11:28:50.679Z,20.71
2023-04-21T11:31:53.905Z,20.66
2023-04-21T11:34:56.146Z,20.70
2023-04-21T11:37:58.431Z,20.66
2023-04-21T11:41:00.807Z,20.70
2023-04-21T11:44:03.290Z,20.69
2023-04-21T11:47:26.834Z,20.76
2023-04-21T11:50:32.811Z,20.80
2023-04-21T11:53:35.147Z,20.78
2023-04-21T11:56:38.889Z,20.81
2023-04-21T11:59:41.638Z,20.88
2023-04-21T12:02:44.229Z,20.89
2023-04-21T12:05:46.631Z,20.95
2023-04-21T12:08:52.277Z,20.94
2023-04-21T12:11:57.571Z,20.96
2023-04-21T12:15:02.018Z,20.95
2023-04-21T12:18:04.505Z,20.92
2023-04-21T12:21:06.808Z,20.92
2023-04-21T12:24:09.067Z,20.90
2023-04-21T12:27:11.997Z,20.92
2023-04-21T12:30:14.594Z,20.83
2023-04-21T12:33:16.966Z,20.88
2023-04-21T12:36:19.428Z,20.83
2023-04-21T12:39:24.868Z,20.83
2023-04-21T12:42:30.473Z,20.75
2023-04-21T12:45:33.171Z,20.77
2023-04-21T12:48:35.618Z,20.71
2023-04-21T12:51:38.153Z,20.64
2023-04-21T12:54:40.337Z,20.67
2023-04-21T12:57:42.799Z,20.66
2023-04-21T13:00:45.164Z,20.64
2023-04-21T13:03:47.671Z,20.60
2023-04-21T13:06:50.020Z,20.57
2023-04-21T13:09:52.164Z,20.54
2023-04-21T13:12:57.343Z,20.52
2023-04-21T13:15:59.537Z,20.54
2023-04-21T13:19:01.999Z,20.47
2023-04-21T13:22:04.165Z,20.50
2023-04-21T13:25:06.815Z,20.48
2023-04-21T13:28:09.130Z,20.52
2023-04-21T13:31:11.383Z,20.54
2023-04-21T13:34:13.675Z,20.56
2023-04-21T13:37:17.087Z,20.59
2023-04-21T13:40:19.224Z,20.62
2023-04-21T13:43:21.532Z,20.59
2023-04-21T13:46:24.295Z,20.69
2023-04-21T13:49:27.195Z,20.71
2023-04-21T13:52:32.313Z,20.73
2023-04-21T13:55:34.476Z,20.75
2023-04-21T13:58:36.626Z,20.80
2023-04-21T14:01:38.883Z,20.82
2023-04-21T14:04:41.313Z,20.86
2023-04-21T14:07:43.855Z,20.91
2023-04-21T14:10:46.085Z,20.96
2023-04-21T14:14:07.537Z,21.02
2023-04-21T14:17:11.167Z,21.11
2023-04-21T14:20:14.168Z,21.17
2023-04-21T14:23:16.562Z,21.19
2023-04-21T14:26:18.714Z,21.19
2023-04-21T14:29:22.580Z,21.16
2023-04-21T14:32:25.504Z,21.12
2023-04-21T14:35:28.200Z,21.13
2023-04-21T14:38:30.853Z,21.12
2023-04-21T14:41:33.146Z,21.10
2023-04-21T14:44:35.790Z,21.11
2023-04-21T14:47:38.596Z,21.12
2023-04-21T14:50:41.442Z,21.14
2023-04-21T14:53:43.648Z,21.21
2023-04-21T14:56:45.961Z,21.29
2023-04-21T14:59:52.260Z,21.28
2023-04-21T15:02:54.571Z,21.30
2023-04-21T15:05:56.933Z,21.30
2023-04-21T15:08:59.124Z,21.31
2023-04-21T15:12:01.598Z,21.44
2023-04-21T15:15:04.000Z,21.55
2023-04-21T15:18:06.261Z,21.72
2023-04-21T15:21:08.556Z,21.82
2023-04-21T15:24:11.029Z,21.89
2023-04-21T15:27:13.182Z,21.96
2023-04-21T15:30:15.668Z,22.04
2023-04-21T15:33:17.933Z,22.12
2023-04-21T15:36:20.104Z,22.15
2023-04-21T15:39:22.376Z,22.18
2023-04-21T15:42:24.658Z,22.23
2023-04-21T15:45:26.952Z,22.23
2023-04-21T15:48:29.315Z,22.23
2023-04-21T15:51:33.414Z,22.21
2023-04-21T15:54:35.964Z,22.25
2023-04-21T15:57:38.792Z,22.26
2023-04-21T16:00:41.869Z,22.26
2023-04-21T16:03:44.306Z,22.30
2023-04-21T16:06:46.979Z,22.30
2023-04-21T16:09:49.387Z,22.23
2023-04-21T16:12:51.655Z,22.21
2023-04-21T16:15:54.037Z,22.19
2023-04-21T16:18:56.301Z,22.08
2023-04-21T16:21:58.587Z,22.01
2023-04-21T16:25:01.793Z,21.95
2023-04-21T16:28:04.215Z,22.00
2023-04-21T16:31:06.491Z,21.99
2023-04-21T16:34:08.707Z,21.91
2023-04-21T16:37:11.211Z,21.93
2023-04-21T16:40:14.092Z,21.91
2023-04-21T16:43:16.459Z,21.89
2023-04-21T16:46:19.039Z,21.94
2023-04-21T16:49:21.394Z,21.88
2023-04-21T16:52:25.606Z,21.82
2023-04-21T16:55:28.014Z,21.82
2023-04-21T16:58:33.386Z,21.81
2023-04-21T17:01:36.062Z,21.76
2023-04-21T17:04:40.008Z,21.68
2023-04-21T17:07:43.169Z,21.60
2023-04-21T17:10:45.844Z,21.52
2023-04-21T17:13:48.089Z,21.43
2023-04-21T17:16:51.034Z,21.30
2023-04-21T17:19:54.195Z,21.24
2023-04-21T17:22:56.487Z,21.17
2023-04-21T17:25:58.634Z,21.11
2023-04-21T17:29:00.994Z,21.05
2023-04-21T17:32:03.253Z,20.94
2023-04-21T17:35:05.810Z,20.80
2023-04-21T17:38:08.758Z,20.74
2023-04-21T17:41:10.992Z,20.67
2023-04-21T17:44:13.163Z,20.59
2023-04-21T17:47:15.396Z,20.51
2023-04-21T17:50:17.656Z,20.46
2023-04-21T17:53:22.939Z,20.43
2023-04-21T17:56:26.750Z,20.39
2023-04-21T17:59:29.113Z,20.39
2023-04-21T18:02:31.409Z,20.27
2023-04-21T18:05:33.807Z,20.20
2023-04-21T18:08:36.269Z,20.19
2023-04-21T18:11:38.870Z,20.13
2023-04-21T18:14:41.297Z,20.06
2023-04-21T18:17:43.489Z,19.97
2023-04-21T18:20:45.834Z,19.95
2023-04-21T18:23:49.180Z,19.82
2023-04-21T18:26:51.428Z,19.79
2023-04-21T18:29:53.595Z,19.80
2023-04-21T18:32:55.802Z,19.75
2023-04-21T18:35:58.262Z,19.73
2023-04-21T18:39:00.747Z,19.71
2023-04-21T18:42:03.022Z,19.65
2023-04-21T18:45:05.811Z,19.63
2023-04-21T18:48:12.150Z,19.62
2023-04-21T18:51:17.434Z,19.57
2023-04-21T18:54:19.620Z,19.52
2023-04-21T18:57:21.857Z,19.40
2023-04-21T19:00:24.095Z,19.43
2023-04-21T19:03:26.508Z,19.41
2023-04-21T19:06:29.327Z,19.34
2023-04-21T19:09:31.540Z,19.27
2023-04-21T19:12:34.279Z,19.22
2023-04-21T19:15:36.674Z,19.14
2023-04-21T19:18:39.060Z,19.15
2023-04-21T19:21:41.208Z,19.10
2023-04-21T19:24:43.423Z,19.07
2023-04-21T19:27:46.322Z,19.00
2023-04-21T19:30:48.958Z,18.96
2023-04-21T19:33:52.444Z,18.91
2023-04-21T19:36:54.640Z,18.87
2023-04-21T19:39:56.897Z,18.82
2023-04-21T19:42:59.134Z,18.81
2023-04-21T19:46:02.070Z,18.73
2023-04-21T19:49:04.375Z,18.71
2023-04-21T19:52:06.917Z,18.60
2023-04-21T19:55:09.592Z,18.52
2023-04-21T19:58:11.882Z,18.55
2023-04-21T20:01:14.123Z,18.52
2023-04-21T20:04:16.682Z,18.44
2023-04-21T20:07:19.650Z,18.43
2023-04-21T20:10:25.327Z,18.39
2023-04-21T20:13:27.445Z,18.39
2023-04-21T20:16:29.749Z,18.32
2023-04-21T20:19:32.044Z,18.23
2023-04-21T20:22:34.232Z,18.22
2023-04-21T20:25:36.588Z,18.12
2023-04-21T20:28:38.895Z,17.98
2023-04-21T20:31:41.277Z,17.90
2023-04-21T20:34:43.644Z,17.79
2023-04-21T20:37:45.871Z,17.70
2023-04-21T20:40:50.167Z,17.65
2023-04-21T20:43:52.944Z,17.59
2023-04-21T20:46:55.204Z,17.50
2023-04-21T20:49:59.187Z,17.49
2023-04-21T20:53:02.257Z,17.42
2023-04-21T20:56:04.453Z,17.34
2023-04-21T20:59:07.008Z,17.31
2023-04-21T21:02:09.424Z,17.25
2023-04-21T21:05:11.691Z,17.23
2023-04-21T21:08:13.990Z,17.21
2023-04-21T21:11:16.178Z,17.19
2023-04-21T21:14:18.377Z,17.12
2023-04-21T21:17:20.641Z,17.16
2023-04-21T21:20:22.846Z,17.08
2023-04-21T21:23:25.010Z,17.07
2023-04-21T21:26:27.377Z,17.09
2023-04-21T21:29:29.908Z,17.09
2023-04-21T21:32:32.355Z,17.09
2023-04-21T21:35:34.759Z,17.09
2023-04-21T21:38:36.932Z,17.09
2023-04-21T21:41:39.873Z,17.11
2023-04-21T21:44:42.268Z,17.08
2023-04-21T21:47:45.771Z,17.08
2023-04-21T21:50:48.251Z,17.05
2023-04-21T21:53:50.625Z,17.03
2023-04-21T21:56:53.117Z,16.98
2023-04-21T21:59:55.420Z,16.98
2023-04-21T22:02:58.836Z,17.00
2023-04-21T22:06:01.187Z,16.99
2023-04-21T22:09:05.145Z,16.89
2023-04-21T22:12:07.501Z,16.88
2023-04-21T22:15:10.393Z,16.83
2023-04-21T22:18:12.552Z,16.83
2023-04-21T22:21:15.033Z,16.85
2023-04-21T22:24:17.268Z,16.81
2023-04-21T22:27:19.427Z,16.76
2023-04-21T22:30:21.684Z,16.74
2023-04-21T22:33:24.322Z,16.63
2023-04-21T22:36:26.618Z,16.62
2023-04-21T22:39:31.563Z,16.60
2023-04-21T22:42:33.809Z,16.59
2023-04-21T22:45:36.093Z,16.61
2023-04-21T22:48:38.401Z,16.53
2023-04-21T22:51:40.799Z,16.53
2023-04-21T22:54:43.077Z,16.53
2023-04-21T22:57:50.218Z,16.51
2023-04-21T23:00:52.773Z,16.52
2023-04-21T23:03:55.354Z,16.52
2023-04-21T23:06:57.727Z,16.49
2023-04-21T23:10:00.208Z,16.50
2023-04-21T23:13:03.092Z,16.50
2023-04-21T23:16:05.822Z,16.45
2023-04-21T23:19:08.304Z,16.46
2023-04-21T23:22:10.632Z,16.46
2023-04-21T23:25:12.896Z,16.51
2023-04-21T23:28:17.527Z,16.47
2023-04-21T23:31:19.768Z,16.50
2023-04-21T23:34:21.940Z,16.53
2023-04-21T23:37:24.226Z,16.50
2023-04-21T23:40:26.672Z,16.44
2023-04-21T23:43:29.339Z,16.47
2023-04-21T23:46:31.721Z,16.42
2023-04-21T23:49:33.968Z,16.43
2023-04-21T23:52:36.234Z,16.36
2023-04-21T23:55:38.562Z,16.35
2023-04-21T23:58:40.831Z,16.43
